Aérodrome :
LOGIN :

S'inscrire | Disclaimer

   EN    FR    IT 

 










Légende :    VFR   VFR Marginal   IFR   IFR Intensif   IFR Très Intensif
Visi : 
Plafond : 
>= 8 km
>= 3000ft
5 à 8 km
1000 à 3000 ft
1500m à 5 km
500 à 1000 ft
800 à 1500m
200 à 500 ft
< 800m
< 200 ft
Symboles :   Orages  Brouillard  Fortes neiges  Fortes précipitations  Vent > 20 kt
SIGMETs :   Divers  Orages  Givrage  Turbulence  Onde Orograph.  Cendres Volcan.







- Altitude de l'aérodrome : 726 ft
- Code IATA : DIJ
- Voir les cartes d'approche


LFSD - Dijon

DERNIER METAR :
  • 232200Z AUTO 36002KT CAVOK 16/14 Q1018

METARs EXPIRÉS :
  • 232130Z AUTO 35002KT CAVOK 16/14 Q1018
  • 232100Z AUTO 02003KT 9999 FEW027 BKN062 16/14 Q1018
  • 232030Z AUTO 35002KT 9999 FEW027 BKN060 16/13 Q1018
  • 232000Z AUTO 35001KT 9999 FEW029 SCT130 16/14 Q1018
  • 231930Z AUTO VRB03KT CAVOK 17/14 Q1018

Prévision TAF périmée.
Pas de NOTAMs connus pour ce terrain.
1 SIGMET publié pour la FIR Reims (LFEE) :
 
Orages noyés dans la masse
LFEE SIGMET 4 VALID 232200/240200 LFPW
LFEE REIMS FIR/UIR EMBD TS OBS AT 2200Z WI N4915 E00715 - N4900 E00815 - N4745 E00745 - N4800 E00645 - N4915 E00715 TOP FL350 MOV W 10KT NC=



MET'MAP, la Météo Aéronautique d'un coup d'oeil ! - Copyright ORBIFLY Décembre 2007 - Disclaimer

ORBIFLY MET'MAP TEAM :

Programmation & Développement : Alexandra Zaïnal
Conception & Développement : Baudouin d'Aumeries
Co-Programmation & Développement : Marc-Olivier Méhu
Soutien technique & logistique : Manuel Goepfert

Contact : metmap@orbifly.com




SOURCES & CREDITS :

   NOAA